createdAt,value
2023-04-22T00:03:04.323Z,2.30
2023-04-22T00:08:07.231Z,2.40
2023-04-22T01:03:42.984Z,2.40
2023-04-22T01:08:49.909Z,2.20
2023-04-22T01:13:53.261Z,2.10
2023-04-22T01:18:55.922Z,2.20
2023-04-22T01:24:01.417Z,2.30
2023-04-22T01:29:05.230Z,2.10
2023-04-22T01:34:07.940Z,1.70
2023-04-22T01:44:14.396Z,1.80
2023-04-22T02:04:31.019Z,1.50
2023-04-22T02:09:34.029Z,1.30
2023-04-22T02:19:40.872Z,1.20
2023-04-22T02:24:43.899Z,1.20
2023-04-22T02:34:52.447Z,1.30
2023-04-22T02:45:03.166Z,1.00
2023-04-22T02:50:07.488Z,1.10
2023-04-22T02:55:10.525Z,1.00
2023-04-22T03:15:24.123Z,1.00
2023-04-22T03:25:30.052Z,0.80
2023-04-22T04:11:24.405Z,5.10
2023-04-22T04:16:30.170Z,5.60
2023-04-22T04:21:40.222Z,5.60
2023-04-22T04:26:43.466Z,6.30
2023-04-22T04:31:50.381Z,7.60
2023-04-22T04:36:53.147Z,8.70
2023-04-22T04:42:02.104Z,9.90
2023-04-22T04:47:07.318Z,11.00
2023-04-22T04:52:12.001Z,11.90
2023-04-22T04:57:16.301Z,12.30
2023-04-22T05:02:19.851Z,12.10
2023-04-22T05:07:23.367Z,13.10
2023-04-22T05:12:28.128Z,13.80
2023-04-22T05:17:31.708Z,14.80
2023-04-22T05:22:36.858Z,14.90
2023-04-22T05:27:41.308Z,16.30
2023-04-22T05:32:45.513Z,17.20
2023-04-22T05:37:48.245Z,17.40
2023-04-22T05:42:50.821Z,16.00
2023-04-22T05:47:53.525Z,14.00
2023-04-22T05:52:57.281Z,13.20
2023-04-22T05:57:59.917Z,12.70
2023-04-22T06:03:14.394Z,12.50
2023-04-22T06:08:17.870Z,12.50
2023-04-22T06:13:20.725Z,12.50
2023-04-22T06:18:23.306Z,12.80
2023-04-22T06:23:26.130Z,13.00
2023-04-22T06:28:29.734Z,13.20
2023-04-22T06:33:37.060Z,13.60
2023-04-22T06:38:39.587Z,13.80
2023-04-22T06:44:02.605Z,14.10
2023-04-22T06:49:25.613Z,14.50
2023-04-22T06:54:33.879Z,14.70
2023-04-22T06:59:36.886Z,15.00
2023-04-22T07:04:40.146Z,15.10
2023-04-22T07:09:43.130Z,15.30
2023-04-22T07:14:47.022Z,15.50
2023-04-22T07:19:49.928Z,15.50
2023-04-22T07:24:52.614Z,15.60
2023-04-22T07:29:55.252Z,15.80
2023-04-22T07:34:58.083Z,16.10
2023-04-22T07:40:00.560Z,16.30
2023-04-22T07:45:03.329Z,16.30
2023-04-22T07:50:06.590Z,16.40
2023-04-22T07:55:09.738Z,16.40
2023-04-22T08:00:13.590Z,16.60
2023-04-22T08:05:16.202Z,14.90
2023-04-22T08:10:19.054Z,17.10
2023-04-22T08:15:21.681Z,16.90
2023-04-22T08:20:25.686Z,17.00
2023-04-22T08:25:28.813Z,17.20
2023-04-22T08:30:31.586Z,17.30
2023-04-22T08:35:37.794Z,17.50
2023-04-22T08:40:43.471Z,17.70
2023-04-22T08:45:46.850Z,17.80
2023-04-22T08:50:50.252Z,18.00
2023-04-22T08:55:55.721Z,17.80
2023-04-22T09:00:58.409Z,18.10
2023-04-22T09:06:03.693Z,18.20
2023-04-22T09:11:06.262Z,18.10
2023-04-22T09:16:09.138Z,18.10
2023-04-22T09:21:12.459Z,18.10
2023-04-22T09:26:18.229Z,18.30
2023-04-22T09:31:22.270Z,18.50
2023-04-22T09:36:29.227Z,18.40
2023-04-22T09:41:34.042Z,18.30
2023-04-22T09:46:37.012Z,18.40
2023-04-22T09:51:42.698Z,18.40
2023-04-22T09:56:49.463Z,18.40
2023-04-22T10:01:55.034Z,18.50
2023-04-22T10:06:57.693Z,18.70
2023-04-22T10:12:01.547Z,19.30
2023-04-22T10:17:05.418Z,19.40
2023-04-22T10:22:11.493Z,19.40
2023-04-22T10:27:14.162Z,19.20
2023-04-22T10:32:19.680Z,19.20
2023-04-22T10:37:25.519Z,19.40
2023-04-22T10:42:28.940Z,19.20
2023-04-22T10:47:31.820Z,19.10
2023-04-22T10:52:35.617Z,19.10
2023-04-22T10:57:47.453Z,18.60
2023-04-22T11:03:04.984Z,18.40
2023-04-22T11:08:16.637Z,18.60
2023-04-22T11:13:21.615Z,19.00
2023-04-22T11:18:27.236Z,19.20
2023-04-22T11:23:30.210Z,19.20
2023-04-22T11:28:33.247Z,19.10
2023-04-22T11:33:38.528Z,18.70
2023-04-22T11:38:41.165Z,18.70
2023-04-22T11:43:48.293Z,18.60
2023-04-22T11:48:50.761Z,19.00
2023-04-22T11:53:53.251Z,19.30
2023-04-22T11:58:55.938Z,19.70
2023-04-22T12:04:01.464Z,20.20
2023-04-22T12:09:04.344Z,19.90
2023-04-22T12:14:07.038Z,19.80
2023-04-22T12:19:10.483Z,19.40
2023-04-22T12:24:13.011Z,19.80
2023-04-22T12:29:15.673Z,19.80
2023-04-22T12:34:18.735Z,19.90
2023-04-22T12:39:21.580Z,20.10
2023-04-22T12:44:27.690Z,19.80
2023-04-22T12:49:31.084Z,19.30
2023-04-22T12:54:34.225Z,19.10
2023-04-22T12:59:37.113Z,18.80
2023-04-22T13:04:39.696Z,18.90
2023-04-22T13:09:42.493Z,19.00
2023-04-22T13:14:45.683Z,19.00
2023-04-22T13:19:50.839Z,19.30
2023-04-22T13:24:54.712Z,19.10
2023-04-22T13:29:57.594Z,18.90
2023-04-22T13:35:02.673Z,19.10
2023-04-22T13:40:06.493Z,19.20
2023-04-22T13:45:09.664Z,19.40
2023-04-22T13:50:12.277Z,19.60
2023-04-22T13:55:15.281Z,19.40
2023-04-22T14:00:18.004Z,19.40
2023-04-22T14:05:20.561Z,19.40
2023-04-22T14:10:23.218Z,19.30
2023-04-22T14:15:25.936Z,19.30
2023-04-22T14:20:28.755Z,19.30
2023-04-22T14:25:31.969Z,19.40
2023-04-22T14:30:34.677Z,19.40
2023-04-22T14:35:38.634Z,19.30
2023-04-22T14:40:41.367Z,19.30
2023-04-22T14:45:44.266Z,19.30
2023-04-22T14:50:46.995Z,19.30
2023-04-22T14:55:49.631Z,19.30
2023-04-22T15:00:53.238Z,19.20
2023-04-22T15:05:56.359Z,18.90
2023-04-22T15:11:00.260Z,19.00
2023-04-22T15:16:03.101Z,19.10
2023-04-22T15:21:10.192Z,19.00
2023-04-22T15:26:12.933Z,18.90
2023-04-22T15:31:19.093Z,18.90
2023-04-22T15:36:21.836Z,18.80
2023-04-22T15:41:26.798Z,18.70
2023-04-22T15:46:30.619Z,18.80
2023-04-22T15:51:33.372Z,18.70
2023-04-22T15:56:36.132Z,18.70
2023-04-22T16:01:40.582Z,18.60
2023-04-22T16:06:43.395Z,18.50
2023-04-22T16:11:48.822Z,18.50
2023-04-22T16:16:52.518Z,18.50
2023-04-22T16:21:55.781Z,18.40
2023-04-22T16:26:58.824Z,18.20
2023-04-22T16:32:01.585Z,18.20
2023-04-22T16:37:04.455Z,18.10
2023-04-22T16:42:07.227Z,18.10
2023-04-22T16:47:10.107Z,17.70
2023-04-22T16:52:14.100Z,17.70
2023-04-22T16:57:16.923Z,17.50
2023-04-22T17:02:19.908Z,17.30
2023-04-22T17:07:23.193Z,17.20
2023-04-22T17:12:26.613Z,17.00
2023-04-22T17:17:29.495Z,16.80
2023-04-22T17:22:32.424Z,16.60
2023-04-22T17:27:35.043Z,16.30
2023-04-22T17:32:37.581Z,16.20
2023-04-22T17:37:40.575Z,16.00
2023-04-22T17:42:46.354Z,15.60
2023-04-22T17:47:49.438Z,15.50
2023-04-22T17:52:52.360Z,14.90
2023-04-22T17:57:55.202Z,14.20
2023-04-22T18:02:58.131Z,14.10
2023-04-22T18:08:02.832Z,14.00
2023-04-22T18:13:06.460Z,13.60
2023-04-22T18:18:09.263Z,12.10
2023-04-22T18:23:12.152Z,11.80
2023-04-22T18:28:15.509Z,12.00
2023-04-22T18:33:18.165Z,11.60
2023-04-22T18:43:24.865Z,11.00
2023-04-22T18:53:31.714Z,10.50
2023-04-22T18:58:34.689Z,10.80
2023-04-22T19:03:39.484Z,10.80
2023-04-22T19:08:42.647Z,11.30
2023-04-22T19:13:46.404Z,11.10
2023-04-22T19:18:49.295Z,10.10
2023-04-22T19:23:53.039Z,10.10
2023-04-22T19:28:56.292Z,9.80
2023-04-22T19:33:59.740Z,10.00
2023-04-22T19:39:02.654Z,10.00
2023-04-22T19:44:09.308Z,9.70
2023-04-22T19:49:12.427Z,9.10
2023-04-22T19:54:16.558Z,8.60
2023-04-22T19:59:19.630Z,8.30
2023-04-22T20:04:24.271Z,8.20
2023-04-22T20:09:27.637Z,8.10
2023-04-22T20:14:32.535Z,8.40
2023-04-22T20:19:35.855Z,8.40
2023-04-22T20:24:40.860Z,9.40
2023-04-22T20:29:45.351Z,9.70
2023-04-22T20:34:48.316Z,9.70
2023-04-22T20:39:52.142Z,9.70
2023-04-22T20:44:55.638Z,9.60
2023-04-22T20:49:59.641Z,8.90
2023-04-22T20:55:03.578Z,8.90
2023-04-22T21:00:08.399Z,8.90
2023-04-22T21:05:16.156Z,9.00
2023-04-22T21:10:20.675Z,9.10
2023-04-22T21:15:25.359Z,9.10
2023-04-22T21:20:31.288Z,9.00
2023-04-22T21:25:35.531Z,9.30
2023-04-22T21:30:38.616Z,9.50
2023-04-22T21:35:41.673Z,9.50
2023-04-22T21:40:44.680Z,9.40
2023-04-22T21:45:47.672Z,9.10
2023-04-22T21:50:51.381Z,9.00
2023-04-22T21:55:55.302Z,8.70
2023-04-22T22:00:58.377Z,8.70
2023-04-22T22:06:03.043Z,8.60
2023-04-22T22:11:07.053Z,8.60
2023-04-22T22:16:12.416Z,8.40
2023-04-22T22:21:17.744Z,8.40
2023-04-22T22:31:24.058Z,7.90
2023-04-22T22:41:31.577Z,7.50
2023-04-22T22:46:34.605Z,7.70
2023-04-22T22:51:37.720Z,7.80
2023-04-22T22:56:40.713Z,7.90
2023-04-22T23:01:43.623Z,7.70
2023-04-22T23:06:49.730Z,7.60
2023-04-22T23:11:55.081Z,7.10
2023-04-22T23:16:58.183Z,6.70
2023-04-22T23:22:01.374Z,6.50
2023-04-22T23:27:04.935Z,7.10
2023-04-22T23:32:09.093Z,7.30
2023-04-22T23:37:15.487Z,7.30
2023-04-22T23:42:18.191Z,7.10
2023-04-22T23:47:21.142Z,6.90
2023-04-22T23:52:24.228Z,5.90
2023-04-22T23:57:27.750Z,6.70
